Time;durP1;ratioP1;P1;durP2;ratioP2;P2;SDS_P1;SDS_P2;PMS_P1;PMS_P2;Temp;Humidity;BMP_temperature;BMP_pressure;BME280_temperature;BME280_humidity;BME280_pressure;Samples;Min_cycle;Max_cycle;Signal;HPM_P1;HPM_P2
2022/10/24 00:02:24;;;;;;;;;;;;;;;;;;5115176;28;2377;-45
2022/10/24 00:04:51;;;;;;;;;;;;;;;;;;5114996;28;2008;-45
2022/10/24 00:07:18;;;;;;;;;;;;;;;;;;5115141;28;1813;-50
2022/10/24 00:09:45;;;;;;;;;;;;;;;;;;5115120;28;1941;-50
2022/10/24 00:12:12;;;;;;;;;;;;;;;;;;5114976;28;1211;-48
2022/10/24 00:14:39;;;;;;;;;;;;;;;;;;5114605;28;2067;-46
2022/10/24 00:17:06;;;;;;;;;;;;;;;;;;5114820;28;2071;-48
2022/10/24 00:19:33;;;;;;;;;;;;;;;;;;5114668;28;1835;-51
2022/10/24 00:22:00;;;;;;;;;;;;;;;;;;5114834;28;1799;-44
2022/10/24 00:24:27;;;;;;;;;;;;;;;;;;5114691;28;1911;-52
2022/10/24 00:26:54;;;;;;;;;;;;;;;;;;5114725;28;1988;-44
2022/10/24 00:29:22;;;;;;;;;;;;;;;;;;5114653;28;2074;-50
2022/10/24 00:31:49;;;;;;;;;;;;;;;;;;5114611;28;2155;-44
2022/10/24 00:34:16;;;;;;;;;;;;;;;;;;5099627;28;2068;-50
2022/10/24 00:36:43;;;;;;;;;;;;;;;;;;5094161;28;1468;-50
2022/10/24 00:39:11;;;;;;;;;;;;;;;;;;5094185;28;2161;-45
2022/10/24 00:41:41;;;;;;;;;;;;;;;;;;5093845;28;2074;-49
2022/10/24 00:44:13;;;;;;;;;;;;;;;;;;5093984;28;1836;-42
2022/10/24 00:46:41;;;;;;;;;;;;;;;;;;5092773;28;2130;-48
2022/10/24 00:49:13;;;;;;;;;;;;;;;;;;5092354;28;1450;-47
2022/10/24 00:51:40;;;;;;;;;;;;;;;;;;5093851;28;2202;-48
2022/10/24 00:54:09;;;;;;;;;;;;;;;;;;5093863;28;1526;-43
2022/10/24 00:56:40;;;;;;;;;;;;;;;;;;5093690;28;1919;-44
2022/10/24 00:59:08;;;;;;;;;;;;;;;;;;5093771;28;1859;-51
2022/10/24 01:01:35;;;;;;;;;;;;;;;;;;5093644;28;1715;-46
2022/10/24 01:04:02;;;;;;;;;;;;;;;;;;5093488;28;1702;-48
2022/10/24 01:06:29;;;;;;;;;;;;;;;;;;5093770;28;1907;-53
2022/10/24 01:09:11;;;;;;;;;;;;;;;;;;5093090;28;1936;-48
2022/10/24 01:11:49;;;;;;;;;;;;;;;;;;5093589;28;1692;-50
2022/10/24 01:14:16;;;;;;;;;;;;;;;;;;5093318;28;2045;-53
2022/10/24 01:16:47;;;;;;;;;;;;;;;;;;5093216;28;2063;-51
2022/10/24 01:19:47;;;;;;;;;;;;;;;;;;5093109;28;1671;-49
2022/10/24 01:22:21;;;;;;;;;;;;;;;;;;5069933;28;1669;-47
2022/10/24 01:24:54;;;;;;;;;;;;;;;;;;5093325;28;2023;-47
2022/10/24 01:27:22;;;;;;;;;;;;;;;;;;5093279;28;1875;-52
2022/10/24 01:29:58;;;;;;;;;;;;;;;;;;5092961;28;2271;-48
2022/10/24 01:32:38;;;;;;;;;;;;;;;;;;5093038;28;1668;-48
2022/10/24 01:35:05;;;;;;;;;;;;;;;;;;5093028;28;1850;-40
2022/10/24 01:37:38;;;;;;;;;;;;;;;;;;5093355;28;1994;-54
2022/10/24 01:40:10;;;;;;;;;;;;;;;;;;5092639;28;1790;-44
2022/10/24 01:42:40;;;;;;;;;;;;;;;;;;5092668;28;1837;-48
2022/10/24 01:45:09;;;;;;;;;;;;;;;;;;5092365;28;1974;-46
2022/10/24 01:47:43;;;;;;;;;;;;;;;;;;5092805;28;1796;-47
2022/10/24 01:50:13;;;;;;;;;;;;;;;;;;5092712;28;1826;-47
2022/10/24 01:52:41;;;;;;;;;;;;;;;;;;5092587;28;1640;-50
2022/10/24 01:55:09;;;;;;;;;;;;;;;;;;5092673;28;2166;-50
2022/10/24 01:57:37;;;;;;;;;;;;;;;;;;5092455;28;1649;-42
2022/10/24 02:00:06;;;;;;;;;;;;;;;;;;5092692;28;1687;-43
2022/10/24 02:02:44;;;;;;;;;;;;;;;;;;5092440;28;1779;-40
2022/10/24 02:05:11;;;;;;;;;;;;;;;;;;5091640;28;1977;-46
2022/10/24 02:07:40;;;;;;;;;;;;;;;;;;5092449;28;2097;-48
2022/10/24 02:10:13;;;;;;;;;;;;;;;;;;5092122;28;1801;-48
2022/10/24 02:12:41;;;;;;;;;;;;;;;;;;5092108;28;2313;-47
2022/10/24 02:15:13;;;;;;;;;;;;;;;;;;5092168;28;1735;-44
2022/10/24 02:17:40;;;;;;;;;;;;;;;;;;5091830;28;2019;-49
2022/10/24 02:20:08;;;;;;;;;;;;;;;;;;5092203;28;1651;-43
2022/10/24 02:22:41;;;;;;;;;;;;;;;;;;5092385;28;1681;-45
2022/10/24 02:25:11;;;;;;;;;;;;;;;;;;5091921;28;2077;-44
2022/10/24 02:27:58;;;;;;;;;;;;;;;;;;5092136;28;2180;-41
2022/10/24 02:30:27;;;;;;;;;;;;;;;;;;5078067;28;2079;-48
2022/10/24 02:32:55;;;;;;;;;;;;;;;;;;5094961;28;1729;-47
2022/10/24 02:35:25;;;;;;;;;;;;;;;;;;5112130;28;2048;-53
2022/10/24 02:37:57;;;;;;;;;;;;;;;;;;5111946;28;2178;-48
2022/10/24 02:40:25;;;;;;;;;;;;;;;;;;5111829;28;1672;-45
2022/10/24 02:42:54;;;;;;;;;;;;;;;;;;5110791;28;1780;-50
2022/10/24 02:45:22;;;;;;;;;;;;;;;;;;5111843;28;2417;-49
2022/10/24 02:47:51;;;;;;;;;;;;;;;;;;5112072;28;1576;-44
2022/10/24 02:50:18;;;;;;;;;;;;;;;;;;5111964;28;1409;-46
2022/10/24 02:52:45;;;;;;;;;;;;;;;;;;5111839;28;2095;-49
2022/10/24 02:55:13;;;;;;;;;;;;;;;;;;5111811;28;1684;-45
2022/10/24 02:57:40;;;;;;;;;;;;;;;;;;5111799;28;2054;-41
2022/10/24 03:00:07;;;;;;;;;;;;;;;;;;5111987;28;2206;-50
2022/10/24 03:02:34;;;;;;;;;;;;;;;;;;5111592;28;2059;-47
2022/10/24 03:05:01;;;;;;;;;;;;;;;;;;5111271;28;2039;-49
2022/10/24 03:07:28;;;;;;;;;;;;;;;;;;5111555;28;1376;-46
2022/10/24 03:09:56;;;;;;;;;;;;;;;;;;5110980;28;1877;-49
2022/10/24 03:12:23;;;;;;;;;;;;;;;;;;5111515;28;1736;-47
2022/10/24 03:14:50;;;;;;;;;;;;;;;;;;5111643;28;1841;-45
2022/10/24 03:17:18;;;;;;;;;;;;;;;;;;5111369;28;1711;-44
2022/10/24 03:19:45;;;;;;;;;;;;;;;;;;5111874;28;2135;-47
2022/10/24 03:22:12;;;;;;;;;;;;;;;;;;5111481;28;1790;-46
2022/10/24 03:24:39;;;;;;;;;;;;;;;;;;5111857;28;2178;-45
2022/10/24 03:27:10;;;;;;;;;;;;;;;;;;5093797;28;2088;-48
2022/10/24 03:29:37;;;;;;;;;;;;;;;;;;5091130;28;2089;-43
2022/10/24 03:32:05;;;;;;;;;;;;;;;;;;5090986;28;1672;-49
2022/10/24 03:34:32;;;;;;;;;;;;;;;;;;5107457;28;2067;-47
2022/10/24 03:37:01;;;;;;;;;;;;;;;;;;5120086;27;11110;-47
2022/10/24 03:39:28;;;;;;;;;;;;;;;;;;5131915;27;1994;-48
2022/10/24 03:41:55;;;;;;;;;;;;;;;;;;5131874;27;1928;-48
2022/10/24 03:44:22;;;;;;;;;;;;;;;;;;5131874;27;2088;-49
2022/10/24 03:46:50;;;;;;;;;;;;;;;;;;5131516;28;2023;-48
2022/10/24 03:49:17;;;;;;;;;;;;;;;;;;5131669;27;1734;-48
2022/10/24 03:51:46;;;;;;;;;;;;;;;;;;5131870;27;1589;-50
2022/10/24 03:54:14;;;;;;;;;;;;;;;;;;5131805;28;2126;-39
2022/10/24 03:56:41;;;;;;;;;;;;;;;;;;5131761;27;1831;-46
2022/10/24 03:59:08;;;;;;;;;;;;;;;;;;5131824;27;1996;-48
2022/10/24 04:01:35;;;;;;;;;;;;;;;;;;5131524;27;1913;-50
2022/10/24 04:04:05;;;;;;;;;;;;;;;;;;5131528;27;1961;-48
2022/10/24 04:06:32;;;;;;;;;;;;;;;;;;5131293;27;1982;-44
2022/10/24 04:09:01;;;;;;;;;;;;;;;;;;5131617;27;1645;-46
2022/10/24 04:11:29;;;;;;;;;;;;;;;;;;5131505;27;2167;-50
2022/10/24 04:13:56;;;;;;;;;;;;;;;;;;5130489;28;1805;-50
2022/10/24 04:16:23;;;;;;;;;;;;;;;;;;5131242;28;1676;-46
2022/10/24 04:18:50;;;;;;;;;;;;;;;;;;5131292;28;1911;-46
2022/10/24 04:21:17;;;;;;;;;;;;;;;;;;5134751;27;1716;-43
2022/10/24 04:23:47;;;;;;;;;;;;;;;;;;5135280;27;1952;-44
2022/10/24 04:26:15;;;;;;;;;;;;;;;;;;5135198;27;1960;-43
2022/10/24 04:28:42;;;;;;;;;;;;;;;;;;5135304;27;1719;-41
2022/10/24 04:31:09;;;;;;;;;;;;;;;;;;5134969;27;1584;-46
2022/10/24 04:33:36;;;;;;;;;;;;;;;;;;5126125;27;2006;-48
2022/10/24 04:36:04;;;;;;;;;;;;;;;;;;5114682;27;1779;-49
2022/10/24 04:38:31;;;;;;;;;;;;;;;;;;5114372;28;1587;-49
2022/10/24 04:40:59;;;;;;;;;;;;;;;;;;5114424;28;2054;-49
2022/10/24 04:43:26;;;;;;;;;;;;;;;;;;5114336;28;2009;-45
2022/10/24 04:45:56;;;;;;;;;;;;;;;;;;5114179;28;2180;-45
2022/10/24 04:48:22;;;;;;;;;;;;;;;;;;5114279;28;1573;-47
2022/10/24 04:50:50;;;;;;;;;;;;;;;;;;5114178;27;1721;-50
2022/10/24 04:53:17;;;;;;;;;;;;;;;;;;5113284;28;1832;-42
2022/10/24 04:55:44;;;;;;;;;;;;;;;;;;5114321;28;1777;-47
2022/10/24 04:58:11;;;;;;;;;;;;;;;;;;5113199;28;2363;-48
2022/10/24 05:00:38;;;;;;;;;;;;;;;;;;5113656;27;1488;-46
2022/10/24 05:03:05;;;;;;;;;;;;;;;;;;5113868;28;2081;-48
2022/10/24 05:05:32;;;;;;;;;;;;;;;;;;5112353;28;2043;-49
2022/10/24 05:07:59;;;;;;;;;;;;;;;;;;5113836;28;1810;-49
2022/10/24 05:10:26;;;;;;;;;;;;;;;;;;5113801;28;1902;-50
2022/10/24 05:12:54;;;;;;;;;;;;;;;;;;5113834;28;1317;-46
2022/10/24 05:15:21;;;;;;;;;;;;;;;;;;5113657;28;2249;-51
2022/10/24 05:17:48;;;;;;;;;;;;;;;;;;5113795;28;2152;-40
2022/10/24 05:20:15;;;;;;;;;;;;;;;;;;5113716;28;1875;-49
2022/10/24 05:22:42;;;;;;;;;;;;;;;;;;5113555;28;1833;-47
2022/10/24 05:25:10;;;;;;;;;;;;;;;;;;5113612;28;1877;-46
2022/10/24 05:27:37;;;;;;;;;;;;;;;;;;5113379;28;1939;-47
2022/10/24 05:30:05;;;;;;;;;;;;;;;;;;5113526;28;2101;-49
2022/10/24 05:32:32;;;;;;;;;;;;;;;;;;5112811;28;1736;-45
2022/10/24 05:35:02;;;;;;;;;;;;;;;;;;5113420;28;2213;-46
2022/10/24 05:37:28;;;;;;;;;;;;;;;;;;5113349;28;2093;-48
2022/10/24 05:39:56;;;;;;;;;;;;;;;;;;5112843;28;1407;-46
2022/10/24 05:42:23;;;;;;;;;;;;;;;;;;5113295;28;1855;-42
2022/10/24 05:44:50;;;;;;;;;;;;;;;;;;5113062;28;2004;-41
2022/10/24 05:47:17;;;;;;;;;;;;;;;;;;5112997;28;2016;-49
2022/10/24 05:49:45;;;;;;;;;;;;;;;;;;5112981;28;1980;-45
2022/10/24 05:52:12;;;;;;;;;;;;;;;;;;5112587;28;1835;-47
2022/10/24 05:54:39;;;;;;;;;;;;;;;;;;5113269;28;1655;-50
2022/10/24 05:57:21;;;;;;;;;;;;;;;;;;5112949;28;1958;-41
2022/10/24 05:59:48;;;;;;;;;;;;;;;;;;5113107;28;1682;-51
2022/10/24 06:02:19;;;;;;;;;;;;;;;;;;5112660;28;1807;-51
2022/10/24 06:04:47;;;;;;;;;;;;;;;;;;5112571;28;1873;-49
2022/10/24 06:07:14;;;;;;;;;;;;;;;;;;5112583;28;2026;-39
2022/10/24 06:09:41;;;;;;;;;;;;;;;;;;5112705;28;1640;-49
2022/10/24 06:12:09;;;;;;;;;;;;;;;;;;5112621;28;1953;-43
2022/10/24 06:14:37;;;;;;;;;;;;;;;;;;5112401;28;1922;-52
2022/10/24 06:17:05;;;;;;;;;;;;;;;;;;5112146;28;2096;-47
2022/10/24 06:19:32;;;;;;;;;;;;;;;;;;5112205;28;2048;-43
2022/10/24 06:21:59;;;;;;;;;;;;;;;;;;5112584;28;1903;-45
2022/10/24 06:24:26;;;;;;;;;;;;;;;;;;5112503;28;2019;-50
2022/10/24 06:26:53;;;;;;;;;;;;;;;;;;5112463;28;1907;-41
2022/10/24 06:29:20;;;;;;;;;;;;;;;;;;5112527;28;1694;-48
2022/10/24 06:31:48;;;;;;;;;;;;;;;;;;5112099;28;1968;-40
2022/10/24 06:34:15;;;;;;;;;;;;;;;;;;5126828;27;2025;-49
2022/10/24 06:36:42;;;;;;;;;;;;;;;;;;5132823;27;1838;-41
2022/10/24 06:39:09;;;;;;;;;;;;;;;;;;5132634;27;2105;-43
2022/10/24 06:41:36;;;;;;;;;;;;;;;;;;5132598;27;1849;-52
2022/10/24 06:44:08;;;;;;;;;;;;;;;;;;5130178;27;2157;-40
2022/10/24 06:46:37;;;;;;;;;;;;;;;;;;5132166;27;1907;-47
2022/10/24 06:49:05;;;;;;;;;;;;;;;;;;5132507;27;1954;-50
2022/10/24 06:51:32;;;;;;;;;;;;;;;;;;5132536;27;1525;-51
2022/10/24 06:53:59;;;;;;;;;;;;;;;;;;5131420;27;1464;-48
2022/10/24 06:56:26;;;;;;;;;;;;;;;;;;5132392;27;1603;-42
2022/10/24 06:58:53;;;;;;;;;;;;;;;;;;5132473;27;1746;-46
2022/10/24 07:01:22;;;;;;;;;;;;;;;;;;5132759;27;1556;-48
2022/10/24 07:03:49;;;;;;;;;;;;;;;;;;5132296;27;1935;-46
2022/10/24 07:06:18;;;;;;;;;;;;;;;;;;5131935;27;1978;-48
2022/10/24 07:08:45;;;;;;;;;;;;;;;;;;5132302;27;2058;-50
2022/10/24 07:11:12;;;;;;;;;;;;;;;;;;5131904;27;1786;-46
2022/10/24 07:13:39;;;;;;;;;;;;;;;;;;5131929;27;1763;-39
2022/10/24 07:16:07;;;;;;;;;;;;;;;;;;5131895;27;1746;-43
2022/10/24 07:18:34;;;;;;;;;;;;;;;;;;5132018;27;1715;-39
2022/10/24 07:21:02;;;;;;;;;;;;;;;;;;5132470;27;1747;-40
2022/10/24 07:23:29;;;;;;;;;;;;;;;;;;5131782;27;1779;-40
2022/10/24 07:26:01;;;;;;;;;;;;;;;;;;5129508;27;1982;-43
2022/10/24 07:28:28;;;;;;;;;;;;;;;;;;5111397;28;1452;-40
2022/10/24 07:30:55;;;;;;;;;;;;;;;;;;5111733;28;1850;-40
2022/10/24 07:33:23;;;;;;;;;;;;;;;;;;5110409;28;2180;-39
2022/10/24 07:35:49;;;;;;;;;;;;;;;;;;5111345;28;2022;-39
2022/10/24 07:38:18;;;;;;;;;;;;;;;;;;5111501;28;1964;-41
2022/10/24 07:40:45;;;;;;;;;;;;;;;;;;5111102;28;2163;-46
2022/10/24 07:43:12;;;;;;;;;;;;;;;;;;5111236;28;1823;-41
2022/10/24 07:45:40;;;;;;;;;;;;;;;;;;5111321;28;1663;-40
2022/10/24 07:48:08;;;;;;;;;;;;;;;;;;5111160;28;1917;-40
2022/10/24 07:50:40;;;;;;;;;;;;;;;;;;5111352;28;1791;-42
2022/10/24 07:53:07;;;;;;;;;;;;;;;;;;5110800;28;1590;-44
2022/10/24 07:55:36;;;;;;;;;;;;;;;;;;5113497;28;1790;-39
2022/10/24 07:58:03;;;;;;;;;;;;;;;;;;5115393;28;1262;-40
2022/10/24 08:00:30;;;;;;;;;;;;;;;;;;5115441;28;1929;-41
2022/10/24 08:02:57;;;;;;;;;;;;;;;;;;5115387;27;1955;-40
2022/10/24 08:05:24;;;;;;;;;;;;;;;;;;5115043;28;2241;-39
2022/10/24 08:07:52;;;;;;;;;;;;;;;;;;5114997;27;2113;-39
2022/10/24 08:10:26;;;;;;;;;;;;;;;;;;5115145;28;2041;-43
2022/10/24 08:12:53;;;;;;;;;;;;;;;;;;5114803;28;1984;-40
2022/10/24 08:15:21;;;;;;;;;;;;;;;;;;5115134;28;1655;-40
2022/10/24 08:17:48;;;;;;;;;;;;;;;;;;5114943;28;1987;-40
2022/10/24 08:20:16;;;;;;;;;;;;;;;;;;5114626;28;2123;-40
2022/10/24 08:22:44;;;;;;;;;;;;;;;;;;5114952;28;1897;-41
2022/10/24 08:25:13;;;;;;;;;;;;;;;;;;5114804;28;2020;-40
2022/10/24 08:27:40;;;;;;;;;;;;;;;;;;5114832;28;1971;-39
2022/10/24 08:30:08;;;;;;;;;;;;;;;;;;5114775;28;2122;-41
2022/10/24 08:32:37;;;;;;;;;;;;;;;;;;5115200;27;2350;-40
2022/10/24 08:35:05;;;;;;;;;;;;;;;;;;5135049;27;1801;-40
2022/10/24 08:37:34;;;;;;;;;;;;;;;;;;5135131;27;1679;-41
2022/10/24 08:40:05;;;;;;;;;;;;;;;;;;5135011;27;1946;-40
2022/10/24 08:42:32;;;;;;;;;;;;;;;;;;5114300;28;1963;-39
2022/10/24 08:45:00;;;;;;;;;;;;;;;;;;5114582;28;1847;-41
2022/10/24 08:47:50;;;;;;;;;;;;;;;;;;5114514;28;1910;-41
2022/10/24 08:50:29;;;;;;;;;;;;;;;;;;5113838;28;1854;-52
2022/10/24 08:52:56;;;;;;;;;;;;;;;;;;5112722;28;2195;-52
2022/10/24 08:55:25;;;;;;;;;;;;;;;;;;5114389;27;2000;-40
2022/10/24 08:58:17;;;;;;;;;;;;;;;;;;5114282;28;2246;-50
2022/10/24 09:00:46;;;;;;;;;;;;;;;;;;5114233;28;1380;-39
2022/10/24 09:03:19;;;;;;;;;;;;;;;;;;5114008;28;1895;-45
2022/10/24 09:05:59;;;;;;;;;;;;;;;;;;5113300;28;1642;-43
2022/10/24 09:08:46;;;;;;;;;;;;;;;;;;5113521;28;1913;-39
2022/10/24 09:11:19;;;;;;;;;;;;;;;;;;5112980;28;1956;-42
2022/10/24 09:13:47;;;;;;;;;;;;;;;;;;5114351;28;1992;-41
2022/10/24 09:16:16;;;;;;;;;;;;;;;;;;5113837;28;1514;-41
2022/10/24 09:18:43;;;;;;;;;;;;;;;;;;5113656;28;2163;-40
2022/10/24 09:21:12;;;;;;;;;;;;;;;;;;5113774;28;1944;-45
2022/10/24 09:23:39;;;;;;;;;;;;;;;;;;5112175;28;1987;-40
2022/10/24 09:26:11;;;;;;;;;;;;;;;;;;5113324;28;2004;-40
2022/10/24 09:28:38;;;;;;;;;;;;;;;;;;5113309;28;2204;-40
2022/10/24 09:31:16;;;;;;;;;;;;;;;;;;5113629;28;1558;-40
2022/10/24 09:33:44;;;;;;;;;;;;;;;;;;5123612;27;1998;-41
2022/10/24 09:36:14;;;;;;;;;;;;;;;;;;5134145;27;1930;-40
2022/10/24 09:38:42;;;;;;;;;;;;;;;;;;5132679;27;1824;-40
2022/10/24 09:41:21;;;;;;;;;;;;;;;;;;5133650;27;1777;-40
2022/10/24 09:43:56;;;;;;;;;;;;;;;;;;5133777;27;1502;-43
2022/10/24 09:46:28;;;;;;;;;;;;;;;;;;5133524;27;1895;-40
2022/10/24 09:49:00;;;;;;;;;;;;;;;;;;5133789;27;2005;-39
2022/10/24 09:51:32;;;;;;;;;;;;;;;;;;5133522;27;2357;-44
2022/10/24 09:54:06;;;;;;;;;;;;;;;;;;5133632;27;2013;-41
2022/10/24 09:56:35;;;;;;;;;;;;;;;;;;5133899;27;1752;-48
2022/10/24 09:59:35;;;;;;;;;;;;;;;;;;5133721;27;1545;-44
2022/10/24 10:02:14;;;;;;;;;;;;;;;;;;5110197;27;1417;-40
2022/10/24 10:04:41;;;;;;;;;;;;;;;;;;5124336;27;1834;-40
2022/10/24 10:07:09;;;;;;;;;;;;;;;;;;5112809;28;1972;-41
2022/10/24 10:09:41;;;;;;;;;;;;;;;;;;5112850;28;1849;-40
2022/10/24 10:12:28;;;;;;;;;;;;;;;;;;5112505;28;2028;-39
2022/10/24 10:14:56;;;;;;;;;;;;;;;;;;5101379;28;1475;-40
2022/10/24 10:17:24;;;;;;;;;;;;;;;;;;5112435;28;2234;-39
2022/10/24 10:19:53;;;;;;;;;;;;;;;;;;5112670;28;1252;-42
2022/10/24 10:22:22;;;;;;;;;;;;;;;;;;5112420;28;1960;-40
2022/10/24 10:24:49;;;;;;;;;;;;;;;;;;5132110;27;1755;-38
2022/10/24 10:27:23;;;;;;;;;;;;;;;;;;5132465;27;2191;-41
2022/10/24 10:30:08;;;;;;;;;;;;;;;;;;5131738;27;2060;-39
2022/10/24 10:32:56;;;;;;;;;;;;;;;;;;5132191;27;2116;-46
2022/10/24 10:35:27;;;;;;;;;;;;;;;;;;5112207;28;2080;-41
2022/10/24 10:37:57;;;;;;;;;;;;;;;;;;5111964;28;1852;-40
2022/10/24 10:40:28;;;;;;;;;;;;;;;;;;5112287;28;2015;-39
2022/10/24 10:43:13;;;;;;;;;;;;;;;;;;5111978;28;1886;-39
2022/10/24 10:45:44;;;;;;;;;;;;;;;;;;5111992;28;1961;-40
2022/10/24 10:48:24;;;;;;;;;;;;;;;;;;5111625;27;1971;-39
2022/10/24 10:50:57;;;;;;;;;;;;;;;;;;5111833;28;1489;-39
2022/10/24 10:53:37;;;;;;;;;;;;;;;;;;5112044;28;1804;-39
2022/10/24 10:56:22;;;;;;;;;;;;;;;;;;5111976;28;1473;-50
2022/10/24 10:58:52;;;;;;;;;;;;;;;;;;5111911;28;2099;-40
2022/10/24 11:01:25;;;;;;;;;;;;;;;;;;5111919;28;1947;-47
2022/10/24 11:04:27;;;;;;;;;;;;;;;;;;5111642;28;1585;-40
2022/10/24 11:07:01;;;;;;;;;;;;;;;;;;5048299;28;2176;-41
2022/10/24 11:09:35;;;;;;;;;;;;;;;;;;5102589;28;2140;-40
2022/10/24 11:12:05;;;;;;;;;;;;;;;;;;5111688;28;1918;-40
2022/10/24 11:14:38;;;;;;;;;;;;;;;;;;5111503;28;2103;-40
2022/10/24 11:17:10;;;;;;;;;;;;;;;;;;5111704;28;2491;-40
2022/10/24 11:20:13;;;;;;;;;;;;;;;;;;5111473;28;1548;-41
2022/10/24 11:22:55;;;;;;;;;;;;;;;;;;5048721;28;1438;-38
2022/10/24 11:25:40;;;;;;;;;;;;;;;;;;5105926;28;1621;-40
2022/10/24 11:28:39;;;;;;;;;;;;;;;;;;5111416;28;1985;-40
2022/10/24 11:31:17;;;;;;;;;;;;;;;;;;5076949;28;2223;-43
2022/10/24 11:33:45;;;;;;;;;;;;;;;;;;5111244;28;1822;-40
2022/10/24 11:36:15;;;;;;;;;;;;;;;;;;5111412;28;1956;-41
2022/10/24 11:38:49;;;;;;;;;;;;;;;;;;5111449;28;1748;-40
2022/10/24 11:41:19;;;;;;;;;;;;;;;;;;5111314;28;1761;-39
2022/10/24 11:43:47;;;;;;;;;;;;;;;;;;5111184;28;1934;-46
2022/10/24 11:46:19;;;;;;;;;;;;;;;;;;5113520;28;1778;-39
2022/10/24 11:49:05;;;;;;;;;;;;;;;;;;5131556;27;1978;-39
2022/10/24 11:51:42;;;;;;;;;;;;;;;;;;5131780;27;2076;-40
2022/10/24 11:54:21;;;;;;;;;;;;;;;;;;5131710;28;1638;-49
2022/10/24 11:56:48;;;;;;;;;;;;;;;;;;5129866;27;3035;-40
2022/10/24 11:59:18;;;;;;;;;;;;;;;;;;5131376;28;1557;-45
2022/10/24 12:01:54;;;;;;;;;;;;;;;;;;5132036;27;1783;-40
2022/10/24 12:04:35;;;;;;;;;;;;;;;;;;5131371;27;2018;-39
2022/10/24 12:07:03;;;;;;;;;;;;;;;;;;5131716;27;2036;-40
2022/10/24 12:09:39;;;;;;;;;;;;;;;;;;5131271;27;2004;-40
2022/10/24 12:12:18;;;;;;;;;;;;;;;;;;5131682;27;2127;-40
2022/10/24 12:14:52;;;;;;;;;;;;;;;;;;5131396;27;2002;-40
2022/10/24 12:17:27;;;;;;;;;;;;;;;;;;5123148;27;1728;-40
2022/10/24 12:19:54;;;;;;;;;;;;;;;;;;5110666;28;2199;-45
2022/10/24 12:22:33;;;;;;;;;;;;;;;;;;5110687;28;1490;-40
2022/10/24 12:25:03;;;;;;;;;;;;;;;;;;5110648;28;1884;-40
2022/10/24 12:27:37;;;;;;;;;;;;;;;;;;5110896;28;1928;-37
2022/10/24 12:30:08;;;;;;;;;;;;;;;;;;5110729;28;2005;-39
2022/10/24 12:32:39;;;;;;;;;;;;;;;;;;5111257;28;1975;-39
2022/10/24 12:35:36;;;;;;;;;;;;;;;;;;5131211;27;2056;-40
2022/10/24 12:38:14;;;;;;;;;;;;;;;;;;5116314;28;1776;-41
2022/10/24 12:40:43;;;;;;;;;;;;;;;;;;5131247;27;1399;-39
2022/10/24 12:43:15;;;;;;;;;;;;;;;;;;5132924;27;2172;-42
2022/10/24 12:45:43;;;;;;;;;;;;;;;;;;5135228;27;2272;-40
2022/10/24 12:48:23;;;;;;;;;;;;;;;;;;5134638;27;2293;-40
2022/10/24 12:50:56;;;;;;;;;;;;;;;;;;5132575;27;1716;-40
2022/10/24 12:53:37;;;;;;;;;;;;;;;;;;5113988;28;1934;-40
2022/10/24 12:56:08;;;;;;;;;;;;;;;;;;5114238;28;1668;-39
2022/10/24 12:58:41;;;;;;;;;;;;;;;;;;5113918;28;2112;-40
2022/10/24 13:01:23;;;;;;;;;;;;;;;;;;5114209;28;1713;-42
2022/10/24 13:03:54;;;;;;;;;;;;;;;;;;5113870;28;2279;-40
2022/10/24 13:06:25;;;;;;;;;;;;;;;;;;5113915;28;1618;-40
2022/10/24 13:09:01;;;;;;;;;;;;;;;;;;5114059;28;2076;-43
2022/10/24 13:11:28;;;;;;;;;;;;;;;;;;5113799;28;1979;-40
2022/10/24 13:13:58;;;;;;;;;;;;;;;;;;5113859;28;1835;-40
2022/10/24 13:16:31;;;;;;;;;;;;;;;;;;5113960;28;1980;-40
2022/10/24 13:19:18;;;;;;;;;;;;;;;;;;5113791;27;1933;-48
2022/10/24 13:21:49;;;;;;;;;;;;;;;;;;5114194;28;1989;-44
2022/10/24 13:24:18;;;;;;;;;;;;;;;;;;5113815;28;2128;-40
2022/10/24 13:26:46;;;;;;;;;;;;;;;;;;5113777;28;2346;-52
2022/10/24 13:29:15;;;;;;;;;;;;;;;;;;5113243;28;2196;-41
2022/10/24 13:31:43;;;;;;;;;;;;;;;;;;5113386;27;1746;-40
2022/10/24 13:34:13;;;;;;;;;;;;;;;;;;5113401;28;1339;-40
2022/10/24 13:36:42;;;;;;;;;;;;;;;;;;5112990;28;1950;-45
2022/10/24 13:39:11;;;;;;;;;;;;;;;;;;5113570;28;1439;-46
2022/10/24 13:41:42;;;;;;;;;;;;;;;;;;5113114;28;1852;-40
2022/10/24 13:44:28;;;;;;;;;;;;;;;;;;5113363;28;1668;-40
2022/10/24 13:47:06;;;;;;;;;;;;;;;;;;5113338;28;1563;-40
2022/10/24 13:49:38;;;;;;;;;;;;;;;;;;5113199;28;1985;-40
2022/10/24 13:52:09;;;;;;;;;;;;;;;;;;5113125;28;2072;-39
2022/10/24 13:54:37;;;;;;;;;;;;;;;;;;5112952;28;2019;-40
2022/10/24 13:57:20;;;;;;;;;;;;;;;;;;5112868;28;1814;-40
2022/10/24 13:59:52;;;;;;;;;;;;;;;;;;5113008;28;1666;-44
2022/10/24 14:02:21;;;;;;;;;;;;;;;;;;5122684;27;2892;-44
2022/10/24 14:04:51;;;;;;;;;;;;;;;;;;5133575;27;1741;-40
2022/10/24 14:07:28;;;;;;;;;;;;;;;;;;5132090;27;1458;-40
2022/10/24 14:10:21;;;;;;;;;;;;;;;;;;5126403;27;2603;-40
2022/10/24 14:12:55;;;;;;;;;;;;;;;;;;5108211;28;1930;-40
2022/10/24 14:15:27;;;;;;;;;;;;;;;;;;5112913;28;1966;-40
2022/10/24 14:17:56;;;;;;;;;;;;;;;;;;5116200;27;2979;-42
2022/10/24 14:20:33;;;;;;;;;;;;;;;;;;5126392;27;1955;-43
2022/10/24 14:23:01;;;;;;;;;;;;;;;;;;5133072;27;1865;-40
2022/10/24 14:25:34;;;;;;;;;;;;;;;;;;5133371;27;2210;-40
2022/10/24 14:28:08;;;;;;;;;;;;;;;;;;5133118;27;1923;-43
2022/10/24 14:30:35;;;;;;;;;;;;;;;;;;5132903;27;1854;-40
2022/10/24 14:33:03;;;;;;;;;;;;;;;;;;5128532;27;1661;-43
2022/10/24 14:35:31;;;;;;;;;;;;;;;;;;5112201;28;1962;-40
2022/10/24 14:37:59;;;;;;;;;;;;;;;;;;5112515;28;2183;-40
2022/10/24 14:40:28;;;;;;;;;;;;;;;;;;5112432;28;1660;-41
2022/10/24 14:42:59;;;;;;;;;;;;;;;;;;5114415;27;2784;-40
2022/10/24 14:45:29;;;;;;;;;;;;;;;;;;5132686;27;2141;-46
2022/10/24 14:47:58;;;;;;;;;;;;;;;;;;5132422;27;1975;-40
2022/10/24 14:50:32;;;;;;;;;;;;;;;;;;5123960;27;2744;-40
2022/10/24 14:53:00;;;;;;;;;;;;;;;;;;5112006;28;1486;-44
2022/10/24 14:55:27;;;;;;;;;;;;;;;;;;5110720;28;1984;-40
2022/10/24 14:57:55;;;;;;;;;;;;;;;;;;5112035;28;1795;-40
2022/10/24 15:00:24;;;;;;;;;;;;;;;;;;5111932;28;1593;-40
2022/10/24 15:02:53;;;;;;;;;;;;;;;;;;5111910;28;1728;-40
2022/10/24 15:05:23;;;;;;;;;;;;;;;;;;5110874;28;1965;-43
2022/10/24 15:07:57;;;;;;;;;;;;;;;;;;5112736;27;1497;-39
2022/10/24 15:10:44;;;;;;;;;;;;;;;;;;5132219;27;1798;-40
2022/10/24 15:13:13;;;;;;;;;;;;;;;;;;5131163;27;2066;-43
2022/10/24 15:15:43;;;;;;;;;;;;;;;;;;5131927;27;1354;-41
2022/10/24 15:18:27;;;;;;;;;;;;;;;;;;5132181;27;1709;-39
2022/10/24 15:21:02;;;;;;;;;;;;;;;;;;5132254;27;2740;-40
2022/10/24 15:23:31;;;;;;;;;;;;;;;;;;5131983;27;1907;-46
2022/10/24 15:26:07;;;;;;;;;;;;;;;;;;5132142;27;1800;-43
2022/10/24 15:28:35;;;;;;;;;;;;;;;;;;5132058;27;1981;-42
2022/10/24 15:31:03;;;;;;;;;;;;;;;;;;5131852;28;1681;-44
2022/10/24 15:33:31;;;;;;;;;;;;;;;;;;5123731;27;2202;-40
2022/10/24 15:35:58;;;;;;;;;;;;;;;;;;5111599;28;2023;-43
2022/10/24 15:38:25;;;;;;;;;;;;;;;;;;5111552;28;2057;-40
2022/10/24 15:40:57;;;;;;;;;;;;;;;;;;5111539;28;2131;-44
2022/10/24 15:43:26;;;;;;;;;;;;;;;;;;5111687;28;1536;-42
2022/10/24 15:45:53;;;;;;;;;;;;;;;;;;5111585;28;2046;-45
2022/10/24 15:48:20;;;;;;;;;;;;;;;;;;5111248;28;1914;-44
2022/10/24 15:50:47;;;;;;;;;;;;;;;;;;5111440;28;1752;-44
2022/10/24 15:53:16;;;;;;;;;;;;;;;;;;5111330;28;1903;-46
2022/10/24 15:55:44;;;;;;;;;;;;;;;;;;5111559;28;1221;-41
2022/10/24 15:58:12;;;;;;;;;;;;;;;;;;5111403;28;2002;-40
2022/10/24 16:00:40;;;;;;;;;;;;;;;;;;5111193;28;1837;-41
2022/10/24 16:03:10;;;;;;;;;;;;;;;;;;5111314;28;1770;-44
2022/10/24 16:05:41;;;;;;;;;;;;;;;;;;5111321;28;1849;-40
2022/10/24 16:08:11;;;;;;;;;;;;;;;;;;5111318;28;1589;-39
2022/10/24 16:10:38;;;;;;;;;;;;;;;;;;5111096;28;1616;-41
2022/10/24 16:13:06;;;;;;;;;;;;;;;;;;5111157;28;1772;-45
2022/10/24 16:15:34;;;;;;;;;;;;;;;;;;5111462;28;1860;-44
2022/10/24 16:18:03;;;;;;;;;;;;;;;;;;5115190;28;1674;-43
2022/10/24 16:20:30;;;;;;;;;;;;;;;;;;5115340;28;1636;-43
2022/10/24 16:22:58;;;;;;;;;;;;;;;;;;5115271;28;1979;-40
2022/10/24 16:25:27;;;;;;;;;;;;;;;;;;5115219;28;1836;-42
2022/10/24 16:27:55;;;;;;;;;;;;;;;;;;5114974;28;2177;-41
2022/10/24 16:30:25;;;;;;;;;;;;;;;;;;5114538;28;1968;-43
2022/10/24 16:32:52;;;;;;;;;;;;;;;;;;5116118;27;2521;-44
2022/10/24 16:35:22;;;;;;;;;;;;;;;;;;5135108;27;1920;-44
2022/10/24 16:37:51;;;;;;;;;;;;;;;;;;5135245;27;1844;-40
2022/10/24 16:40:18;;;;;;;;;;;;;;;;;;5135125;27;1989;-45
2022/10/24 16:42:47;;;;;;;;;;;;;;;;;;5119814;27;2753;-40
2022/10/24 16:45:14;;;;;;;;;;;;;;;;;;5114475;28;2151;-45
2022/10/24 16:47:42;;;;;;;;;;;;;;;;;;5114180;28;1617;-46
2022/10/24 16:50:15;;;;;;;;;;;;;;;;;;5114289;28;1915;-45
2022/10/24 16:52:43;;;;;;;;;;;;;;;;;;5114574;28;1688;-45
2022/10/24 16:55:11;;;;;;;;;;;;;;;;;;5114249;28;1957;-40
2022/10/24 16:57:38;;;;;;;;;;;;;;;;;;5114188;28;1614;-40
2022/10/24 17:00:06;;;;;;;;;;;;;;;;;;5114028;28;2239;-49
2022/10/24 17:02:34;;;;;;;;;;;;;;;;;;5114476;28;1884;-40
2022/10/24 17:05:01;;;;;;;;;;;;;;;;;;5114328;27;1578;-40
2022/10/24 17:07:28;;;;;;;;;;;;;;;;;;5114262;28;1817;-44
2022/10/24 17:09:55;;;;;;;;;;;;;;;;;;5114064;28;2001;-40
2022/10/24 17:12:23;;;;;;;;;;;;;;;;;;5113851;28;1871;-45
2022/10/24 17:14:50;;;;;;;;;;;;;;;;;;5113864;28;1660;-42
2022/10/24 17:17:17;;;;;;;;;;;;;;;;;;5113992;28;1562;-39
2022/10/24 17:19:47;;;;;;;;;;;;;;;;;;5113750;28;2390;-40
2022/10/24 17:22:14;;;;;;;;;;;;;;;;;;5118705;27;2785;-47
2022/10/24 17:24:41;;;;;;;;;;;;;;;;;;5128212;27;2840;-49
2022/10/24 17:27:10;;;;;;;;;;;;;;;;;;5133821;27;1519;-39